sensor_id;sensor_type;location;lat;lon;timestamp;temperature;humidity
74742;DHT22;63265;48.288;16.314;2022-09-21T00:01:07;18.30;68.40
74742;DHT22;63265;48.288;16.314;2022-09-21T00:03:34;18.30;68.40
74742;DHT22;63265;48.288;16.314;2022-09-21T00:06:07;18.30;68.40
74742;DHT22;63265;48.288;16.314;2022-09-21T00:08:33;18.30;68.40
74742;DHT22;63265;48.288;16.314;2022-09-21T00:11:00;18.30;68.40
74742;DHT22;63265;48.288;16.314;2022-09-21T00:13:26;18.30;68.40
74742;DHT22;63265;48.288;16.314;2022-09-21T00:15:54;18.30;68.40
74742;DHT22;63265;48.288;16.314;2022-09-21T00:18:20;18.30;68.40
74742;DHT22;63265;48.288;16.314;2022-09-21T00:20:46;18.30;68.40
74742;DHT22;63265;48.288;16.314;2022-09-21T00:23:12;18.30;68.40
74742;DHT22;63265;48.288;16.314;2022-09-21T00:25:38;18.30;68.40
74742;DHT22;63265;48.288;16.314;2022-09-21T00:28:03;18.30;68.40
74742;DHT22;63265;48.288;16.314;2022-09-21T00:30:29;18.30;68.40
74742;DHT22;63265;48.288;16.314;2022-09-21T00:32:55;18.30;68.40
74742;DHT22;63265;48.288;16.314;2022-09-21T00:35:20;18.30;68.40
74742;DHT22;63265;48.288;16.314;2022-09-21T00:37:46;18.30;68.50
74742;DHT22;63265;48.288;16.314;2022-09-21T00:40:12;18.20;68.40
74742;DHT22;63265;48.288;16.314;2022-09-21T00:42:37;18.20;68.50
74742;DHT22;63265;48.288;16.314;2022-09-21T00:45:04;18.20;69.30
74742;DHT22;63265;48.288;16.314;2022-09-21T00:47:42;18.20;68.50
74742;DHT22;63265;48.288;16.314;2022-09-21T00:50:12;18.20;68.50
74742;DHT22;63265;48.288;16.314;2022-09-21T00:52:41;18.20;68.50
74742;DHT22;63265;48.288;16.314;2022-09-21T00:57:37;18.20;68.50
74742;DHT22;63265;48.288;16.314;2022-09-21T01:00:06;18.20;68.60
74742;DHT22;63265;48.288;16.314;2022-09-21T01:02:36;18.20;68.50
74742;DHT22;63265;48.288;16.314;2022-09-21T01:05:04;18.20;68.50
74742;DHT22;63265;48.288;16.314;2022-09-21T01:07:34;18.20;68.60
74742;DHT22;63265;48.288;16.314;2022-09-21T01:10:05;18.10;68.60
74742;DHT22;63265;48.288;16.314;2022-09-21T01:15:41;18.10;68.50
74742;DHT22;63265;48.288;16.314;2022-09-21T01:18:20;18.10;68.50
74742;DHT22;63265;48.288;16.314;2022-09-21T01:31:50;18.10;68.60
74742;DHT22;63265;48.288;16.314;2022-09-21T01:34:26;18.10;68.50
74742;DHT22;63265;48.288;16.314;2022-09-21T01:36:54;18.10;68.50
74742;DHT22;63265;48.288;16.314;2022-09-21T01:46:11;18.10;68.40
74742;DHT22;63265;48.288;16.314;2022-09-21T01:48:40;18.10;68.40
74742;DHT22;63265;48.288;16.314;2022-09-21T01:51:10;18.10;68.40
74742;DHT22;63265;48.288;16.314;2022-09-21T01:53:42;18.10;68.30
74742;DHT22;63265;48.288;16.314;2022-09-21T01:56:11;18.10;68.40
74742;DHT22;63265;48.288;16.314;2022-09-21T02:01:23;18.20;68.30
74742;DHT22;63265;48.288;16.314;2022-09-21T02:03:59;18.20;68.20
74742;DHT22;63265;48.288;16.314;2022-09-21T02:06:27;18.20;68.20
74742;DHT22;63265;48.288;16.314;2022-09-21T02:08:55;18.20;68.10
74742;DHT22;63265;48.288;16.314;2022-09-21T02:11:22;18.20;68.00
74742;DHT22;63265;48.288;16.314;2022-09-21T02:13:50;18.20;68.00
74742;DHT22;63265;48.288;16.314;2022-09-21T02:16:36;18.20;68.10
74742;DHT22;63265;48.288;16.314;2022-09-21T02:25:10;18.20;68.00
74742;DHT22;63265;48.288;16.314;2022-09-21T02:27:52;18.20;68.00
74742;DHT22;63265;48.288;16.314;2022-09-21T02:30:21;18.20;68.00
74742;DHT22;63265;48.288;16.314;2022-09-21T02:35:43;18.20;67.90
74742;DHT22;63265;48.288;16.314;2022-09-21T02:41:01;18.20;67.90
74742;DHT22;63265;48.288;16.314;2022-09-21T02:46:25;18.20;67.90
74742;DHT22;63265;48.288;16.314;2022-09-21T02:48:55;18.20;67.90
74742;DHT22;63265;48.288;16.314;2022-09-21T02:51:28;18.20;67.80
74742;DHT22;63265;48.288;16.314;2022-09-21T02:53:56;18.20;67.90
74742;DHT22;63265;48.288;16.314;2022-09-21T02:56:23;18.20;67.90
74742;DHT22;63265;48.288;16.314;2022-09-21T02:58:53;18.20;67.90
74742;DHT22;63265;48.288;16.314;2022-09-21T03:01:21;18.20;67.90
74742;DHT22;63265;48.288;16.314;2022-09-21T03:03:48;18.20;67.90
74742;DHT22;63265;48.288;16.314;2022-09-21T03:06:14;18.20;67.90
74742;DHT22;63265;48.288;16.314;2022-09-21T03:08:40;18.20;67.90
74742;DHT22;63265;48.288;16.314;2022-09-21T03:11:06;18.20;67.90
74742;DHT22;63265;48.288;16.314;2022-09-21T03:13:32;18.10;67.80
74742;DHT22;63265;48.288;16.314;2022-09-21T03:16:00;18.10;67.80
74742;DHT22;63265;48.288;16.314;2022-09-21T03:18:26;18.20;67.80
74742;DHT22;63265;48.288;16.314;2022-09-21T03:20:52;18.10;67.70
74742;DHT22;63265;48.288;16.314;2022-09-21T03:23:17;18.20;67.80
74742;DHT22;63265;48.288;16.314;2022-09-21T03:25:44;18.20;67.80
74742;DHT22;63265;48.288;16.314;2022-09-21T03:28:10;18.10;68.60
74742;DHT22;63265;48.288;16.314;2022-09-21T03:30:37;18.10;67.70
74742;DHT22;63265;48.288;16.314;2022-09-21T03:33:04;18.10;67.70
74742;DHT22;63265;48.288;16.314;2022-09-21T03:35:31;18.10;67.70
74742;DHT22;63265;48.288;16.314;2022-09-21T03:38:00;18.10;67.70
74742;DHT22;63265;48.288;16.314;2022-09-21T03:40:27;18.10;67.70
74742;DHT22;63265;48.288;16.314;2022-09-21T03:42:53;18.10;68.60
74742;DHT22;63265;48.288;16.314;2022-09-21T03:45:19;18.10;67.70
74742;DHT22;63265;48.288;16.314;2022-09-21T03:47:46;18.10;67.70
74742;DHT22;63265;48.288;16.314;2022-09-21T03:50:13;18.10;67.70
74742;DHT22;63265;48.288;16.314;2022-09-21T03:52:39;18.10;67.70
74742;DHT22;63265;48.288;16.314;2022-09-21T03:55:06;18.10;67.70
74742;DHT22;63265;48.288;16.314;2022-09-21T03:57:33;18.10;67.80
74742;DHT22;63265;48.288;16.314;2022-09-21T04:00:00;18.10;67.70
74742;DHT22;63265;48.288;16.314;2022-09-21T04:02:28;18.10;67.80
74742;DHT22;63265;48.288;16.314;2022-09-21T04:04:53;18.10;67.80
74742;DHT22;63265;48.288;16.314;2022-09-21T04:07:19;18.00;67.80
74742;DHT22;63265;48.288;16.314;2022-09-21T04:09:45;18.00;67.70
74742;DHT22;63265;48.288;16.314;2022-09-21T04:12:10;18.10;67.80
74742;DHT22;63265;48.288;16.314;2022-09-21T04:14:37;18.00;67.80
74742;DHT22;63265;48.288;16.314;2022-09-21T04:17:03;18.00;67.70
74742;DHT22;63265;48.288;16.314;2022-09-21T04:19:28;18.00;67.80
74742;DHT22;63265;48.288;16.314;2022-09-21T04:21:54;18.00;67.70
74742;DHT22;63265;48.288;16.314;2022-09-21T04:24:20;18.00;67.80
74742;DHT22;63265;48.288;16.314;2022-09-21T04:26:46;18.00;67.80
74742;DHT22;63265;48.288;16.314;2022-09-21T04:29:13;18.00;67.80
74742;DHT22;63265;48.288;16.314;2022-09-21T04:31:39;18.00;68.70
74742;DHT22;63265;48.288;16.314;2022-09-21T04:34:05;18.00;67.80
74742;DHT22;63265;48.288;16.314;2022-09-21T04:36:31;18.00;67.80
74742;DHT22;63265;48.288;16.314;2022-09-21T04:38:59;18.00;67.70
74742;DHT22;63265;48.288;16.314;2022-09-21T04:41:25;18.00;67.80
74742;DHT22;63265;48.288;16.314;2022-09-21T04:43:51;18.00;67.70
74742;DHT22;63265;48.288;16.314;2022-09-21T04:46:18;18.00;67.80
74742;DHT22;63265;48.288;16.314;2022-09-21T04:48:45;18.00;67.70
74742;DHT22;63265;48.288;16.314;2022-09-21T04:51:11;18.00;67.70
74742;DHT22;63265;48.288;16.314;2022-09-21T04:53:38;18.00;67.60
74742;DHT22;63265;48.288;16.314;2022-09-21T04:56:05;18.10;67.60
74742;DHT22;63265;48.288;16.314;2022-09-21T04:58:32;18.10;67.60
74742;DHT22;63265;48.288;16.314;2022-09-21T05:00:57;18.10;67.40
74742;DHT22;63265;48.288;16.314;2022-09-21T05:03:24;18.20;67.40
74742;DHT22;63265;48.288;16.314;2022-09-21T05:05:52;18.20;67.30
74742;DHT22;63265;48.288;16.314;2022-09-21T05:08:19;18.20;67.20
74742;DHT22;63265;48.288;16.314;2022-09-21T05:11:07;18.20;67.10
74742;DHT22;63265;48.288;16.314;2022-09-21T05:13:32;18.30;67.00
74742;DHT22;63265;48.288;16.314;2022-09-21T05:15:58;18.30;66.90
74742;DHT22;63265;48.288;16.314;2022-09-21T05:18:24;18.30;66.90
74742;DHT22;63265;48.288;16.314;2022-09-21T05:20:56;18.40;66.90
74742;DHT22;63265;48.288;16.314;2022-09-21T05:23:23;18.40;66.90
74742;DHT22;63265;48.288;16.314;2022-09-21T05:25:49;18.50;67.00
74742;DHT22;63265;48.288;16.314;2022-09-21T05:28:18;18.50;67.30
74742;DHT22;63265;48.288;16.314;2022-09-21T05:30:53;18.50;67.00
74742;DHT22;63265;48.288;16.314;2022-09-21T05:33:22;18.50;67.00
74742;DHT22;63265;48.288;16.314;2022-09-21T05:38:35;18.60;67.00
74742;DHT22;63265;48.288;16.314;2022-09-21T05:41:01;18.60;66.90
74742;DHT22;63265;48.288;16.314;2022-09-21T05:43:28;18.60;67.00
74742;DHT22;63265;48.288;16.314;2022-09-21T05:46:16;18.60;66.90
74742;DHT22;63265;48.288;16.314;2022-09-21T05:48:53;18.60;67.00
74742;DHT22;63265;48.288;16.314;2022-09-21T05:51:49;18.60;67.30
74742;DHT22;63265;48.288;16.314;2022-09-21T05:54:33;18.70;67.20
74742;DHT22;63265;48.288;16.314;2022-09-21T06:05:14;18.80;68.10
74742;DHT22;63265;48.288;16.314;2022-09-21T06:07:41;18.80;68.10
74742;DHT22;63265;48.288;16.314;2022-09-21T06:10:08;18.80;67.90
74742;DHT22;63265;48.288;16.314;2022-09-21T06:12:34;18.90;68.30
74742;DHT22;63265;48.288;16.314;2022-09-21T06:14:59;18.90;68.40
74742;DHT22;63265;48.288;16.314;2022-09-21T06:17:25;18.90;68.20
74742;DHT22;63265;48.288;16.314;2022-09-21T06:19:52;18.90;69.10
74742;DHT22;63265;48.288;16.314;2022-09-21T06:22:18;18.90;68.20
74742;DHT22;63265;48.288;16.314;2022-09-21T06:24:43;18.90;68.30
74742;DHT22;63265;48.288;16.314;2022-09-21T06:27:09;18.90;68.20
74742;DHT22;63265;48.288;16.314;2022-09-21T06:29:35;18.90;68.10
74742;DHT22;63265;48.288;16.314;2022-09-21T06:32:01;18.80;68.10
74742;DHT22;63265;48.288;16.314;2022-09-21T06:34:27;18.80;68.00
74742;DHT22;63265;48.288;16.314;2022-09-21T06:36:53;18.90;68.10
74742;DHT22;63265;48.288;16.314;2022-09-21T06:39:18;18.90;68.00
74742;DHT22;63265;48.288;16.314;2022-09-21T06:41:44;18.80;67.80
74742;DHT22;63265;48.288;16.314;2022-09-21T06:44:10;18.80;67.90
74742;DHT22;63265;48.288;16.314;2022-09-21T06:46:35;18.80;67.90
74742;DHT22;63265;48.288;16.314;2022-09-21T06:49:01;18.80;67.70
74742;DHT22;63265;48.288;16.314;2022-09-21T06:51:26;18.80;67.70
74742;DHT22;63265;48.288;16.314;2022-09-21T06:53:56;18.80;67.80
74742;DHT22;63265;48.288;16.314;2022-09-21T06:56:23;18.70;67.70
74742;DHT22;63265;48.288;16.314;2022-09-21T06:58:49;18.70;67.60
74742;DHT22;63265;48.288;16.314;2022-09-21T07:01:15;18.70;67.70
74742;DHT22;63265;48.288;16.314;2022-09-21T07:03:41;18.80;67.70
74742;DHT22;63265;48.288;16.314;2022-09-21T07:06:08;18.70;68.50
74742;DHT22;63265;48.288;16.314;2022-09-21T07:08:40;18.70;67.60
74742;DHT22;63265;48.288;16.314;2022-09-21T07:11:07;18.70;67.60
74742;DHT22;63265;48.288;16.314;2022-09-21T07:13:32;18.70;67.50
74742;DHT22;63265;48.288;16.314;2022-09-21T07:16:02;18.70;67.50
74742;DHT22;63265;48.288;16.314;2022-09-21T07:18:29;18.70;67.40
74742;DHT22;63265;48.288;16.314;2022-09-21T07:20:55;18.70;67.40
74742;DHT22;63265;48.288;16.314;2022-09-21T07:23:20;18.70;67.30
74742;DHT22;63265;48.288;16.314;2022-09-21T07:29:08;18.70;67.30
74742;DHT22;63265;48.288;16.314;2022-09-21T07:31:34;18.70;67.20
74742;DHT22;63265;48.288;16.314;2022-09-21T07:33:59;18.70;67.10
74742;DHT22;63265;48.288;16.314;2022-09-21T07:36:25;18.70;67.10
74742;DHT22;63265;48.288;16.314;2022-09-21T07:38:51;18.70;67.00
74742;DHT22;63265;48.288;16.314;2022-09-21T07:41:18;18.70;67.00
74742;DHT22;63265;48.288;16.314;2022-09-21T07:43:43;18.70;67.70
74742;DHT22;63265;48.288;16.314;2022-09-21T07:46:11;18.70;66.90
74742;DHT22;63265;48.288;16.314;2022-09-21T07:48:37;18.70;66.90
74742;DHT22;63265;48.288;16.314;2022-09-21T07:51:06;18.70;66.80
74742;DHT22;63265;48.288;16.314;2022-09-21T07:53:35;18.70;66.80
74742;DHT22;63265;48.288;16.314;2022-09-21T07:56:07;18.70;66.80
74742;DHT22;63265;48.288;16.314;2022-09-21T07:58:35;18.70;66.70
74742;DHT22;63265;48.288;16.314;2022-09-21T08:01:19;18.60;66.70
74742;DHT22;63265;48.288;16.314;2022-09-21T08:03:50;18.60;66.50
74742;DHT22;63265;48.288;16.314;2022-09-21T08:06:17;18.60;66.70
74742;DHT22;63265;48.288;16.314;2022-09-21T08:08:43;18.60;66.70
74742;DHT22;63265;48.288;16.314;2022-09-21T08:11:09;18.60;66.60
74742;DHT22;63265;48.288;16.314;2022-09-21T08:13:36;18.60;66.70
74742;DHT22;63265;48.288;16.314;2022-09-21T08:16:02;18.60;66.60
74742;DHT22;63265;48.288;16.314;2022-09-21T08:18:28;18.60;66.60
74742;DHT22;63265;48.288;16.314;2022-09-21T08:20:58;18.60;66.60
74742;DHT22;63265;48.288;16.314;2022-09-21T08:23:25;18.60;66.70
74742;DHT22;63265;48.288;16.314;2022-09-21T08:26:00;18.60;66.60
74742;DHT22;63265;48.288;16.314;2022-09-21T08:28:29;18.60;66.70
74742;DHT22;63265;48.288;16.314;2022-09-21T08:31:03;18.60;66.50
74742;DHT22;63265;48.288;16.314;2022-09-21T08:33:29;18.60;66.40
74742;DHT22;63265;48.288;16.314;2022-09-21T08:35:56;18.60;66.40
74742;DHT22;63265;48.288;16.314;2022-09-21T08:38:22;18.60;66.30
74742;DHT22;63265;48.288;16.314;2022-09-21T08:40:48;18.60;66.40
74742;DHT22;63265;48.288;16.314;2022-09-21T08:43:34;18.60;66.40
74742;DHT22;63265;48.288;16.314;2022-09-21T08:46:14;18.60;66.30
74742;DHT22;63265;48.288;16.314;2022-09-21T08:51:25;18.60;66.20
74742;DHT22;63265;48.288;16.314;2022-09-21T08:53:56;18.60;66.10
74742;DHT22;63265;48.288;16.314;2022-09-21T08:56:24;18.70;66.10
74742;DHT22;63265;48.288;16.314;2022-09-21T08:58:50;18.70;65.90
74742;DHT22;63265;48.288;16.314;2022-09-21T09:06:41;18.70;66.00
74742;DHT22;63265;48.288;16.314;2022-09-21T09:09:28;18.70;65.80
74742;DHT22;63265;48.288;16.314;2022-09-21T09:12:14;18.70;65.80
74742;DHT22;63265;48.288;16.314;2022-09-21T09:23:23;18.70;65.60
74742;DHT22;63265;48.288;16.314;2022-09-21T09:25:52;18.70;65.60
74742;DHT22;63265;48.288;16.314;2022-09-21T09:30:55;18.70;65.50
74742;DHT22;63265;48.288;16.314;2022-09-21T09:33:25;18.70;65.50
74742;DHT22;63265;48.288;16.314;2022-09-21T09:36:04;18.70;65.50
74742;DHT22;63265;48.288;16.314;2022-09-21T09:38:37;18.70;65.50
74742;DHT22;63265;48.288;16.314;2022-09-21T09:49:32;18.70;65.60
74742;DHT22;63265;48.288;16.314;2022-09-21T09:52:02;18.60;65.50
74742;DHT22;63265;48.288;16.314;2022-09-21T09:54:33;18.70;65.60
74742;DHT22;63265;48.288;16.314;2022-09-21T09:57:01;18.70;65.60
74742;DHT22;63265;48.288;16.314;2022-09-21T10:02:19;18.70;65.50
74742;DHT22;63265;48.288;16.314;2022-09-21T10:05:05;18.70;65.50
74742;DHT22;63265;48.288;16.314;2022-09-21T10:07:44;18.70;65.50
74742;DHT22;63265;48.288;16.314;2022-09-21T10:13:28;18.70;65.30
74742;DHT22;63265;48.288;16.314;2022-09-21T10:15:59;18.70;65.40
74742;DHT22;63265;48.288;16.314;2022-09-21T10:18:36;18.70;65.40
74742;DHT22;63265;48.288;16.314;2022-09-21T10:21:09;18.70;65.40
74742;DHT22;63265;48.288;16.314;2022-09-21T10:26:44;18.70;65.40
74742;DHT22;63265;48.288;16.314;2022-09-21T10:29:21;18.70;65.50
74742;DHT22;63265;48.288;16.314;2022-09-21T10:32:00;18.60;65.50
74742;DHT22;63265;48.288;16.314;2022-09-21T10:34:28;18.60;65.50
74742;DHT22;63265;48.288;16.314;2022-09-21T10:36:56;18.60;65.60
74742;DHT22;63265;48.288;16.314;2022-09-21T10:42:06;18.60;65.60
74742;DHT22;63265;48.288;16.314;2022-09-21T10:44:40;18.60;65.60
74742;DHT22;63265;48.288;16.314;2022-09-21T10:47:30;18.60;65.60
74742;DHT22;63265;48.288;16.314;2022-09-21T10:50:01;18.60;65.60
74742;DHT22;63265;48.288;16.314;2022-09-21T10:52:38;18.60;65.60
74742;DHT22;63265;48.288;16.314;2022-09-21T10:55:05;18.60;65.70
74742;DHT22;63265;48.288;16.314;2022-09-21T10:57:32;18.60;65.60
74742;DHT22;63265;48.288;16.314;2022-09-21T11:00:25;18.60;65.70
74742;DHT22;63265;48.288;16.314;2022-09-21T11:03:02;18.60;65.80
74742;DHT22;63265;48.288;16.314;2022-09-21T11:05:38;18.60;65.80
74742;DHT22;63265;48.288;16.314;2022-09-21T11:08:19;18.60;65.70
74742;DHT22;63265;48.288;16.314;2022-09-21T11:11:10;18.60;65.70
74742;DHT22;63265;48.288;16.314;2022-09-21T11:13:44;18.60;65.80
74742;DHT22;63265;48.288;16.314;2022-09-21T11:16:31;18.50;65.80
74742;DHT22;63265;48.288;16.314;2022-09-21T11:21:50;18.50;65.90
74742;DHT22;63265;48.288;16.314;2022-09-21T11:24:48;18.50;65.90
74742;DHT22;63265;48.288;16.314;2022-09-21T11:27:16;18.50;65.90
74742;DHT22;63265;48.288;16.314;2022-09-21T11:49:53;18.50;65.90
74742;DHT22;63265;48.288;16.314;2022-09-21T11:58:19;18.50;65.80
74742;DHT22;63265;48.288;16.314;2022-09-21T12:10:10;18.50;65.80
74742;DHT22;63265;48.288;16.314;2022-09-21T12:15:25;18.60;65.80
74742;DHT22;63265;48.288;16.314;2022-09-21T12:20:54;18.60;65.90
74742;DHT22;63265;48.288;16.314;2022-09-21T12:23:27;18.60;65.80
74742;DHT22;63265;48.288;16.314;2022-09-21T12:25:56;18.60;65.90
74742;DHT22;63265;48.288;16.314;2022-09-21T12:28:41;18.60;65.80
74742;DHT22;63265;48.288;16.314;2022-09-21T12:34:02;18.50;65.90
74742;DHT22;63265;48.288;16.314;2022-09-21T12:36:39;18.50;66.00
74742;DHT22;63265;48.288;16.314;2022-09-21T12:39:27;18.50;65.90
74742;DHT22;63265;48.288;16.314;2022-09-21T12:41:58;18.50;66.20
74742;DHT22;63265;48.288;16.314;2022-09-21T12:44:46;18.60;66.00
74742;DHT22;63265;48.288;16.314;2022-09-21T12:47:35;18.50;66.00
74742;DHT22;63265;48.288;16.314;2022-09-21T12:50:05;18.50;65.90
74742;DHT22;63265;48.288;16.314;2022-09-21T12:52:37;18.50;65.90
74742;DHT22;63265;48.288;16.314;2022-09-21T12:58:15;18.50;65.80
74742;DHT22;63265;48.288;16.314;2022-09-21T13:06:29;18.60;65.90
74742;DHT22;63265;48.288;16.314;2022-09-21T13:09:01;18.60;65.70
74742;DHT22;63265;48.288;16.314;2022-09-21T13:11:31;18.60;65.80
74742;DHT22;63265;48.288;16.314;2022-09-21T13:14:03;18.60;65.80
74742;DHT22;63265;48.288;16.314;2022-09-21T13:21:39;18.50;65.70
74742;DHT22;63265;48.288;16.314;2022-09-21T13:24:06;18.50;65.80
74742;DHT22;63265;48.288;16.314;2022-09-21T13:26:54;18.50;65.80
74742;DHT22;63265;48.288;16.314;2022-09-21T13:34:39;18.50;65.90
74742;DHT22;63265;48.288;16.314;2022-09-21T13:39:53;18.50;66.00
74742;DHT22;63265;48.288;16.314;2022-09-21T13:47:41;18.40;66.90
74742;DHT22;63265;48.288;16.314;2022-09-21T13:53:03;18.40;66.10
74742;DHT22;63265;48.288;16.314;2022-09-21T13:55:38;18.40;66.20
74742;DHT22;63265;48.288;16.314;2022-09-21T14:00:42;18.40;66.20
74742;DHT22;63265;48.288;16.314;2022-09-21T14:03:23;18.40;66.30
74742;DHT22;63265;48.288;16.314;2022-09-21T14:05:53;18.40;66.30
74742;DHT22;63265;48.288;16.314;2022-09-21T14:11:22;18.40;66.20
74742;DHT22;63265;48.288;16.314;2022-09-21T14:13:44;18.40;66.20
74742;DHT22;63265;48.288;16.314;2022-09-21T14:24:37;18.40;66.20
74742;DHT22;63265;48.288;16.314;2022-09-21T14:27:24;18.40;66.10
74742;DHT22;63265;48.288;16.314;2022-09-21T14:30:04;18.40;66.20
74742;DHT22;63265;48.288;16.314;2022-09-21T14:35:30;18.40;66.10
74742;DHT22;63265;48.288;16.314;2022-09-21T14:38:02;18.40;66.00
74742;DHT22;63265;48.288;16.314;2022-09-21T14:40:38;18.50;66.10
74742;DHT22;63265;48.288;16.314;2022-09-21T14:43:20;18.50;66.00
74742;DHT22;63265;48.288;16.314;2022-09-21T15:02:20;18.60;65.50
74742;DHT22;63265;48.288;16.314;2022-09-21T15:07:38;18.70;65.40
74742;DHT22;63265;48.288;16.314;2022-09-21T15:13:16;18.70;65.30
74742;DHT22;63265;48.288;16.314;2022-09-21T15:16:16;18.70;65.20
74742;DHT22;63265;48.288;16.314;2022-09-21T15:18:45;18.80;65.20
74742;DHT22;63265;48.288;16.314;2022-09-21T15:21:24;18.80;65.10
74742;DHT22;63265;48.288;16.314;2022-09-21T15:23:50;18.80;65.10
74742;DHT22;63265;48.288;16.314;2022-09-21T15:26:20;18.80;65.10
74742;DHT22;63265;48.288;16.314;2022-09-21T15:28:52;18.80;65.00
74742;DHT22;63265;48.288;16.314;2022-09-21T15:31:19;18.90;65.00
74742;DHT22;63265;48.288;16.314;2022-09-21T15:33:45;18.90;64.90
74742;DHT22;63265;48.288;16.314;2022-09-21T15:36:19;18.90;64.90
74742;DHT22;63265;48.288;16.314;2022-09-21T15:38:47;18.90;64.90
74742;DHT22;63265;48.288;16.314;2022-09-21T15:44:06;18.90;64.80
74742;DHT22;63265;48.288;16.314;2022-09-21T15:46:36;18.90;64.90
74742;DHT22;63265;48.288;16.314;2022-09-21T15:49:02;19.00;65.30
74742;DHT22;63265;48.288;16.314;2022-09-21T15:51:32;19.10;65.40
74742;DHT22;63265;48.288;16.314;2022-09-21T15:54:29;19.10;65.60
74742;DHT22;63265;48.288;16.314;2022-09-21T15:57:01;19.10;65.80
74742;DHT22;63265;48.288;16.314;2022-09-21T15:59:28;19.10;66.10
74742;DHT22;63265;48.288;16.314;2022-09-21T16:02:00;19.10;66.50
74742;DHT22;63265;48.288;16.314;2022-09-21T16:04:34;19.20;66.70
74742;DHT22;63265;48.288;16.314;2022-09-21T16:07:06;19.20;66.90
74742;DHT22;63265;48.288;16.314;2022-09-21T16:09:35;19.20;67.10
74742;DHT22;63265;48.288;16.314;2022-09-21T16:12:38;19.20;67.30
74742;DHT22;63265;48.288;16.314;2022-09-21T16:15:26;19.30;67.50
74742;DHT22;63265;48.288;16.314;2022-09-21T16:18:04;19.30;67.90
74742;DHT22;63265;48.288;16.314;2022-09-21T16:20:45;19.30;68.10
74742;DHT22;63265;48.288;16.314;2022-09-21T16:23:18;19.30;68.00
74742;DHT22;63265;48.288;16.314;2022-09-21T16:25:53;19.30;68.00
74742;DHT22;63265;48.288;16.314;2022-09-21T16:30:52;19.30;67.90
74742;DHT22;63265;48.288;16.314;2022-09-21T16:33:37;19.30;67.80
74742;DHT22;63265;48.288;16.314;2022-09-21T16:38:51;19.30;67.80
74742;DHT22;63265;48.288;16.314;2022-09-21T16:41:32;19.40;68.00
74742;DHT22;63265;48.288;16.314;2022-09-21T16:43:58;19.40;68.20
74742;DHT22;63265;48.288;16.314;2022-09-21T16:46:25;19.40;68.40
74742;DHT22;63265;48.288;16.314;2022-09-21T16:48:52;19.40;68.30
74742;DHT22;63265;48.288;16.314;2022-09-21T16:51:21;19.40;68.00
74742;DHT22;63265;48.288;16.314;2022-09-21T16:53:52;19.40;67.90
74742;DHT22;63265;48.288;16.314;2022-09-21T16:56:18;19.40;67.70
74742;DHT22;63265;48.288;16.314;2022-09-21T16:58:44;19.40;67.60
74742;DHT22;63265;48.288;16.314;2022-09-21T17:01:17;19.40;67.60
74742;DHT22;63265;48.288;16.314;2022-09-21T17:03:45;19.40;67.50
74742;DHT22;63265;48.288;16.314;2022-09-21T17:06:19;19.30;67.40
74742;DHT22;63265;48.288;16.314;2022-09-21T17:08:46;19.30;67.30
74742;DHT22;63265;48.288;16.314;2022-09-21T17:11:16;19.30;67.30
74742;DHT22;63265;48.288;16.314;2022-09-21T17:13:48;19.40;67.30
74742;DHT22;63265;48.288;16.314;2022-09-21T17:16:15;19.40;67.30
74742;DHT22;63265;48.288;16.314;2022-09-21T17:18:46;19.40;67.40
74742;DHT22;63265;48.288;16.314;2022-09-21T17:21:12;19.40;67.40
74742;DHT22;63265;48.288;16.314;2022-09-21T17:23:38;19.40;67.40
74742;DHT22;63265;48.288;16.314;2022-09-21T17:26:11;19.40;67.40
74742;DHT22;63265;48.288;16.314;2022-09-21T17:28:40;19.40;67.50
74742;DHT22;63265;48.288;16.314;2022-09-21T17:31:10;19.40;67.60
74742;DHT22;63265;48.288;16.314;2022-09-21T17:33:35;19.40;67.50
74742;DHT22;63265;48.288;16.314;2022-09-21T17:36:01;19.40;67.40
74742;DHT22;63265;48.288;16.314;2022-09-21T17:38:30;19.40;68.30
74742;DHT22;63265;48.288;16.314;2022-09-21T17:40:57;19.40;67.30
74742;DHT22;63265;48.288;16.314;2022-09-21T17:43:47;19.40;67.10
74742;DHT22;63265;48.288;16.314;2022-09-21T17:46:31;19.40;67.10
74742;DHT22;63265;48.288;16.314;2022-09-21T17:49:01;19.40;67.00
74742;DHT22;63265;48.288;16.314;2022-09-21T17:51:26;19.40;66.70
74742;DHT22;63265;48.288;16.314;2022-09-21T17:54:10;19.40;66.60
74742;DHT22;63265;48.288;16.314;2022-09-21T17:57:01;19.40;66.60
74742;DHT22;63265;48.288;16.314;2022-09-21T17:59:33;19.50;66.70
74742;DHT22;63265;48.288;16.314;2022-09-21T18:02:00;19.50;66.60
74742;DHT22;63265;48.288;16.314;2022-09-21T18:04:27;19.50;66.90
74742;DHT22;63265;48.288;16.314;2022-09-21T18:06:54;19.50;66.90
74742;DHT22;63265;48.288;16.314;2022-09-21T18:09:20;19.50;67.00
74742;DHT22;63265;48.288;16.314;2022-09-21T18:14:33;19.60;67.20
74742;DHT22;63265;48.288;16.314;2022-09-21T18:24:57;19.70;67.20
74742;DHT22;63265;48.288;16.314;2022-09-21T18:27:24;19.70;67.20
74742;DHT22;63265;48.288;16.314;2022-09-21T18:29:50;19.70;67.30
74742;DHT22;63265;48.288;16.314;2022-09-21T18:38:39;19.80;67.30
74742;DHT22;63265;48.288;16.314;2022-09-21T18:44:17;19.80;67.00
74742;DHT22;63265;48.288;16.314;2022-09-21T18:47:09;19.80;66.90
74742;DHT22;63265;48.288;16.314;2022-09-21T18:49:55;19.80;66.90
74742;DHT22;63265;48.288;16.314;2022-09-21T18:55:38;19.80;66.80
74742;DHT22;63265;48.288;16.314;2022-09-21T18:58:03;19.80;66.70
74742;DHT22;63265;48.288;16.314;2022-09-21T19:00:30;19.80;66.70
74742;DHT22;63265;48.288;16.314;2022-09-21T19:02:57;19.80;66.60
74742;DHT22;63265;48.288;16.314;2022-09-21T19:05:23;19.80;66.50
74742;DHT22;63265;48.288;16.314;2022-09-21T19:10:49;19.80;66.60
74742;DHT22;63265;48.288;16.314;2022-09-21T19:13:31;19.90;66.60
74742;DHT22;63265;48.288;16.314;2022-09-21T19:16:16;19.90;66.60
74742;DHT22;63265;48.288;16.314;2022-09-21T19:26:44;19.90;66.40
74742;DHT22;63265;48.288;16.314;2022-09-21T19:35:26;19.80;66.40
74742;DHT22;63265;48.288;16.314;2022-09-21T19:37:54;19.80;66.40
74742;DHT22;63265;48.288;16.314;2022-09-21T19:40:25;19.70;66.40
74742;DHT22;63265;48.288;16.314;2022-09-21T21:13:38;19.40;66.10
74742;DHT22;63265;48.288;16.314;2022-09-21T21:16:04;19.30;66.40
74742;DHT22;63265;48.288;16.314;2022-09-21T21:18:30;19.30;66.60
74742;DHT22;63265;48.288;16.314;2022-09-21T21:21:03;19.30;66.60
74742;DHT22;63265;48.288;16.314;2022-09-21T21:23:29;19.20;66.70
74742;DHT22;63265;48.288;16.314;2022-09-21T21:25:55;19.20;66.60